sensor_id;sensor_type;location;lat;lon;timestamp;P1;durP1;ratioP1;P2;durP2;ratioP2
65189;SDS011;51777;53.570;9.984;2022-09-29T00:00:55;17.23;;;10.43;;
65189;SDS011;51777;53.570;9.984;2022-09-29T00:03:20;15.35;;;9.70;;
65189;SDS011;51777;53.570;9.984;2022-09-29T00:05:47;14.60;;;9.73;;
65189;SDS011;51777;53.570;9.984;2022-09-29T00:08:16;15.90;;;10.15;;
65189;SDS011;51777;53.570;9.984;2022-09-29T00:10:43;16.95;;;10.38;;
65189;SDS011;51777;53.570;9.984;2022-09-29T00:13:09;20.85;;;9.98;;
65189;SDS011;51777;53.570;9.984;2022-09-29T00:15:34;14.80;;;9.70;;
65189;SDS011;51777;53.570;9.984;2022-09-29T00:17:59;14.00;;;9.48;;
65189;SDS011;51777;53.570;9.984;2022-09-29T00:20:25;17.38;;;9.88;;
65189;SDS011;51777;53.570;9.984;2022-09-29T00:22:50;20.08;;;9.63;;
65189;SDS011;51777;53.570;9.984;2022-09-29T00:25:16;20.75;;;10.55;;
65189;SDS011;51777;53.570;9.984;2022-09-29T00:27:42;14.57;;;9.25;;
65189;SDS011;51777;53.570;9.984;2022-09-29T00:30:08;17.00;;;9.57;;
65189;SDS011;51777;53.570;9.984;2022-09-29T00:32:34;16.92;;;9.45;;
65189;SDS011;51777;53.570;9.984;2022-09-29T00:34:59;15.82;;;9.73;;
65189;SDS011;51777;53.570;9.984;2022-09-29T00:37:25;14.93;;;9.00;;
65189;SDS011;51777;53.570;9.984;2022-09-29T00:39:50;16.38;;;9.95;;
65189;SDS011;51777;53.570;9.984;2022-09-29T00:42:17;17.58;;;8.98;;
65189;SDS011;51777;53.570;9.984;2022-09-29T00:44:58;21.48;;;9.55;;
65189;SDS011;51777;53.570;9.984;2022-09-29T00:47:30;14.75;;;9.43;;
65189;SDS011;51777;53.570;9.984;2022-09-29T00:49:59;15.65;;;9.48;;
65189;SDS011;51777;53.570;9.984;2022-09-29T00:52:36;18.00;;;9.80;;
65189;SDS011;51777;53.570;9.984;2022-09-29T00:56:10;19.17;;;9.65;;
65189;SDS011;51777;53.570;9.984;2022-09-29T00:58:25;12.73;;;8.80;;
65189;SDS011;51777;53.570;9.984;2022-09-29T01:00:57;16.33;;;9.45;;
65189;SDS011;51777;53.570;9.984;2022-09-29T01:03:23;15.25;;;9.75;;
65189;SDS011;51777;53.570;9.984;2022-09-29T01:06:02;17.73;;;10.20;;
65189;SDS011;51777;53.570;9.984;2022-09-29T01:11:24;14.50;;;9.18;;
65189;SDS011;51777;53.570;9.984;2022-09-29T01:13:50;16.30;;;9.65;;
65189;SDS011;51777;53.570;9.984;2022-09-29T01:16:17;15.35;;;9.57;;
65189;SDS011;51777;53.570;9.984;2022-09-29T01:18:42;14.98;;;9.38;;
65189;SDS011;51777;53.570;9.984;2022-09-29T01:33:07;14.68;;;9.23;;
65189;SDS011;51777;53.570;9.984;2022-09-29T01:35:29;15.23;;;9.43;;
65189;SDS011;51777;53.570;9.984;2022-09-29T01:38:07;16.08;;;9.70;;
65189;SDS011;51777;53.570;9.984;2022-09-29T01:40:43;15.73;;;9.07;;
65189;SDS011;51777;53.570;9.984;2022-09-29T01:43:15;16.83;;;9.00;;
65189;SDS011;51777;53.570;9.984;2022-09-29T01:45:52;14.77;;;9.32;;
65189;SDS011;51777;53.570;9.984;2022-09-29T01:48:26;18.85;;;8.95;;
65189;SDS011;51777;53.570;9.984;2022-09-29T01:50:58;13.80;;;8.57;;
65189;SDS011;51777;53.570;9.984;2022-09-29T01:53:40;13.48;;;8.57;;
65189;SDS011;51777;53.570;9.984;2022-09-29T01:56:17;14.30;;;9.25;;
65189;SDS011;51777;53.570;9.984;2022-09-29T01:58:55;17.95;;;9.20;;
65189;SDS011;51777;53.570;9.984;2022-09-29T02:01:27;14.48;;;9.02;;
65189;SDS011;51777;53.570;9.984;2022-09-29T02:04:00;14.55;;;9.23;;
65189;SDS011;51777;53.570;9.984;2022-09-29T02:06:36;12.82;;;8.65;;
65189;SDS011;51777;53.570;9.984;2022-09-29T02:09:08;14.02;;;8.23;;
65189;SDS011;51777;53.570;9.984;2022-09-29T02:11:39;14.98;;;8.85;;
65189;SDS011;51777;53.570;9.984;2022-09-29T02:16:35;14.25;;;8.32;;
65189;SDS011;51777;53.570;9.984;2022-09-29T02:19:07;14.43;;;8.80;;
65189;SDS011;51777;53.570;9.984;2022-09-29T02:21:39;14.02;;;8.95;;
65189;SDS011;51777;53.570;9.984;2022-09-29T02:24:04;13.93;;;8.90;;
65189;SDS011;51777;53.570;9.984;2022-09-29T02:26:31;13.55;;;9.23;;
65189;SDS011;51777;53.570;9.984;2022-09-29T02:29:02;16.27;;;9.05;;
65189;SDS011;51777;53.570;9.984;2022-09-29T02:31:30;15.77;;;8.88;;
65189;SDS011;51777;53.570;9.984;2022-09-29T02:33:57;17.48;;;9.43;;
65189;SDS011;51777;53.570;9.984;2022-09-29T02:39:14;16.48;;;9.57;;
65189;SDS011;51777;53.570;9.984;2022-09-29T02:44:50;18.05;;;9.13;;
65189;SDS011;51777;53.570;9.984;2022-09-29T02:47:30;17.40;;;9.37;;
65189;SDS011;51777;53.570;9.984;2022-09-29T02:50:30;16.30;;;9.90;;
65189;SDS011;51777;53.570;9.984;2022-09-29T02:53:20;17.88;;;9.82;;
65189;SDS011;51777;53.570;9.984;2022-09-29T02:56:10;18.10;;;10.48;;
65189;SDS011;51777;53.570;9.984;2022-09-29T02:58:59;17.63;;;10.13;;
65189;SDS011;51777;53.570;9.984;2022-09-29T03:01:29;14.48;;;9.50;;
65189;SDS011;51777;53.570;9.984;2022-09-29T03:03:56;21.35;;;10.70;;
65189;SDS011;51777;53.570;9.984;2022-09-29T03:06:21;17.20;;;10.13;;
65189;SDS011;51777;53.570;9.984;2022-09-29T03:08:47;17.30;;;10.57;;
65189;SDS011;51777;53.570;9.984;2022-09-29T03:11:12;18.80;;;10.90;;
65189;SDS011;51777;53.570;9.984;2022-09-29T03:13:37;19.83;;;10.40;;
65189;SDS011;51777;53.570;9.984;2022-09-29T03:16:03;16.25;;;9.82;;
65189;SDS011;51777;53.570;9.984;2022-09-29T03:18:28;17.73;;;10.00;;
65189;SDS011;51777;53.570;9.984;2022-09-29T03:20:53;15.85;;;10.20;;
65189;SDS011;51777;53.570;9.984;2022-09-29T03:23:19;19.73;;;11.25;;
65189;SDS011;51777;53.570;9.984;2022-09-29T03:25:44;16.95;;;11.50;;
65189;SDS011;51777;53.570;9.984;2022-09-29T03:28:10;17.17;;;11.48;;
65189;SDS011;51777;53.570;9.984;2022-09-29T03:30:35;21.33;;;11.73;;
65189;SDS011;51777;53.570;9.984;2022-09-29T03:33:01;19.98;;;11.45;;
65189;SDS011;51777;53.570;9.984;2022-09-29T03:35:26;20.02;;;11.85;;
65189;SDS011;51777;53.570;9.984;2022-09-29T03:37:56;17.67;;;11.27;;
65189;SDS011;51777;53.570;9.984;2022-09-29T03:40:23;19.02;;;12.10;;
65189;SDS011;51777;53.570;9.984;2022-09-29T03:42:48;18.65;;;11.23;;
65189;SDS011;51777;53.570;9.984;2022-09-29T03:45:14;20.30;;;11.60;;
65189;SDS011;51777;53.570;9.984;2022-09-29T03:47:39;21.60;;;11.73;;
65189;SDS011;51777;53.570;9.984;2022-09-29T03:50:05;17.38;;;12.00;;
65189;SDS011;51777;53.570;9.984;2022-09-29T03:52:31;17.85;;;11.73;;
65189;SDS011;51777;53.570;9.984;2022-09-29T03:54:56;19.23;;;11.68;;
65189;SDS011;51777;53.570;9.984;2022-09-29T03:57:21;21.08;;;12.13;;
65189;SDS011;51777;53.570;9.984;2022-09-29T03:59:47;18.85;;;11.73;;
65189;SDS011;51777;53.570;9.984;2022-09-29T04:02:12;17.35;;;11.80;;
65189;SDS011;51777;53.570;9.984;2022-09-29T04:04:38;21.27;;;12.35;;
65189;SDS011;51777;53.570;9.984;2022-09-29T04:07:03;24.02;;;13.43;;
65189;SDS011;51777;53.570;9.984;2022-09-29T04:09:28;20.48;;;12.77;;
65189;SDS011;51777;53.570;9.984;2022-09-29T04:11:55;24.42;;;13.45;;
65189;SDS011;51777;53.570;9.984;2022-09-29T04:14:20;22.08;;;13.02;;
65189;SDS011;51777;53.570;9.984;2022-09-29T04:16:46;22.40;;;13.65;;
65189;SDS011;51777;53.570;9.984;2022-09-29T04:19:11;26.10;;;13.73;;
65189;SDS011;51777;53.570;9.984;2022-09-29T04:21:36;21.77;;;13.48;;
65189;SDS011;51777;53.570;9.984;2022-09-29T04:24:02;24.17;;;13.27;;
65189;SDS011;51777;53.570;9.984;2022-09-29T04:26:27;23.98;;;13.30;;
65189;SDS011;51777;53.570;9.984;2022-09-29T04:28:52;25.58;;;14.80;;
65189;SDS011;51777;53.570;9.984;2022-09-29T04:31:19;25.33;;;14.18;;
65189;SDS011;51777;53.570;9.984;2022-09-29T04:33:45;28.98;;;15.10;;
65189;SDS011;51777;53.570;9.984;2022-09-29T04:36:10;26.45;;;14.85;;
65189;SDS011;51777;53.570;9.984;2022-09-29T04:38:35;25.98;;;15.02;;
65189;SDS011;51777;53.570;9.984;2022-09-29T04:41:01;27.75;;;14.25;;
65189;SDS011;51777;53.570;9.984;2022-09-29T04:43:26;25.58;;;14.93;;
65189;SDS011;51777;53.570;9.984;2022-09-29T04:45:51;28.15;;;15.57;;
65189;SDS011;51777;53.570;9.984;2022-09-29T04:48:17;28.27;;;16.00;;
65189;SDS011;51777;53.570;9.984;2022-09-29T04:50:42;26.67;;;15.40;;
65189;SDS011;51777;53.570;9.984;2022-09-29T04:53:08;29.25;;;15.98;;
65189;SDS011;51777;53.570;9.984;2022-09-29T04:55:38;26.33;;;16.35;;
65189;SDS011;51777;53.570;9.984;2022-09-29T04:58:03;31.23;;;16.77;;
65189;SDS011;51777;53.570;9.984;2022-09-29T05:00:29;29.20;;;15.80;;
65189;SDS011;51777;53.570;9.984;2022-09-29T05:02:56;25.15;;;15.07;;
65189;SDS011;51777;53.570;9.984;2022-09-29T05:05:21;26.15;;;15.18;;
65189;SDS011;51777;53.570;9.984;2022-09-29T05:07:47;28.75;;;15.52;;
65189;SDS011;51777;53.570;9.984;2022-09-29T05:10:12;26.80;;;16.00;;
65189;SDS011;51777;53.570;9.984;2022-09-29T05:12:38;27.58;;;16.00;;
65189;SDS011;51777;53.570;9.984;2022-09-29T05:15:03;24.95;;;14.95;;
65189;SDS011;51777;53.570;9.984;2022-09-29T05:17:30;27.95;;;16.20;;
65189;SDS011;51777;53.570;9.984;2022-09-29T05:19:55;26.50;;;16.45;;
65189;SDS011;51777;53.570;9.984;2022-09-29T05:22:21;28.63;;;16.65;;
65189;SDS011;51777;53.570;9.984;2022-09-29T05:24:49;27.95;;;15.85;;
65189;SDS011;51777;53.570;9.984;2022-09-29T05:27:17;26.30;;;16.10;;
65189;SDS011;51777;53.570;9.984;2022-09-29T05:29:42;27.23;;;16.27;;
65189;SDS011;51777;53.570;9.984;2022-09-29T05:32:08;29.70;;;15.95;;
65189;SDS011;51777;53.570;9.984;2022-09-29T05:34:33;29.33;;;16.20;;
65189;SDS011;51777;53.570;9.984;2022-09-29T05:36:59;27.40;;;16.20;;
65189;SDS011;51777;53.570;9.984;2022-09-29T05:39:24;27.23;;;17.25;;
65189;SDS011;51777;53.570;9.984;2022-09-29T05:41:50;29.33;;;16.85;;
65189;SDS011;51777;53.570;9.984;2022-09-29T05:44:16;29.77;;;17.10;;
65189;SDS011;51777;53.570;9.984;2022-09-29T05:46:41;27.10;;;16.73;;
65189;SDS011;51777;53.570;9.984;2022-09-29T05:49:07;35.47;;;17.42;;
65189;SDS011;51777;53.570;9.984;2022-09-29T05:51:32;27.30;;;16.98;;
65189;SDS011;51777;53.570;9.984;2022-09-29T05:53:58;25.70;;;16.42;;
65189;SDS011;51777;53.570;9.984;2022-09-29T05:56:25;29.55;;;15.88;;
65189;SDS011;51777;53.570;9.984;2022-09-29T05:58:51;30.58;;;16.40;;
65189;SDS011;51777;53.570;9.984;2022-09-29T06:01:21;34.95;;;16.58;;
65189;SDS011;51777;53.570;9.984;2022-09-29T06:03:48;25.70;;;15.68;;
65189;SDS011;51777;53.570;9.984;2022-09-29T06:06:16;25.25;;;16.10;;
65189;SDS011;51777;53.570;9.984;2022-09-29T06:08:44;24.58;;;15.73;;
65189;SDS011;51777;53.570;9.984;2022-09-29T06:11:12;27.77;;;15.13;;
65189;SDS011;51777;53.570;9.984;2022-09-29T06:13:40;28.60;;;14.93;;
65189;SDS011;51777;53.570;9.984;2022-09-29T06:16:08;25.33;;;14.77;;
65189;SDS011;51777;53.570;9.984;2022-09-29T06:18:34;30.48;;;15.45;;
65189;SDS011;51777;53.570;9.984;2022-09-29T06:21:01;23.50;;;14.82;;
65189;SDS011;51777;53.570;9.984;2022-09-29T06:23:26;24.83;;;14.52;;
65189;SDS011;51777;53.570;9.984;2022-09-29T06:25:58;22.27;;;14.68;;
65189;SDS011;51777;53.570;9.984;2022-09-29T06:28:26;23.30;;;14.13;;
65189;SDS011;51777;53.570;9.984;2022-09-29T06:30:55;25.70;;;14.10;;
65189;SDS011;51777;53.570;9.984;2022-09-29T06:33:23;25.48;;;13.93;;
65189;SDS011;51777;53.570;9.984;2022-09-29T06:35:48;23.27;;;13.63;;
65189;SDS011;51777;53.570;9.984;2022-09-29T06:38:32;20.83;;;13.95;;
65189;SDS011;51777;53.570;9.984;2022-09-29T06:40:58;19.80;;;13.18;;
65189;SDS011;51777;53.570;9.984;2022-09-29T06:43:24;23.05;;;13.55;;
65189;SDS011;51777;53.570;9.984;2022-09-29T06:45:49;21.80;;;13.60;;
65189;SDS011;51777;53.570;9.984;2022-09-29T06:48:14;24.55;;;13.38;;
65189;SDS011;51777;53.570;9.984;2022-09-29T06:50:40;20.88;;;12.27;;
65189;SDS011;51777;53.570;9.984;2022-09-29T06:53:05;16.60;;;11.73;;
65189;SDS011;51777;53.570;9.984;2022-09-29T06:55:31;24.85;;;12.05;;
65189;SDS011;51777;53.570;9.984;2022-09-29T06:57:56;21.55;;;11.77;;
65189;SDS011;51777;53.570;9.984;2022-09-29T07:00:21;18.35;;;11.32;;
65189;SDS011;51777;53.570;9.984;2022-09-29T07:02:47;20.13;;;12.10;;
65189;SDS011;51777;53.570;9.984;2022-09-29T07:05:12;21.23;;;12.23;;
65189;SDS011;51777;53.570;9.984;2022-09-29T07:07:38;18.08;;;11.07;;
65189;SDS011;51777;53.570;9.984;2022-09-29T07:10:03;22.75;;;12.63;;
65189;SDS011;51777;53.570;9.984;2022-09-29T07:12:29;21.48;;;11.77;;
65189;SDS011;51777;53.570;9.984;2022-09-29T07:14:55;16.98;;;11.82;;
65189;SDS011;51777;53.570;9.984;2022-09-29T07:17:20;18.45;;;11.85;;
65189;SDS011;51777;53.570;9.984;2022-09-29T07:19:46;17.30;;;11.05;;
65189;SDS011;51777;53.570;9.984;2022-09-29T07:22:11;19.23;;;11.85;;
65189;SDS011;51777;53.570;9.984;2022-09-29T07:24:36;18.35;;;11.68;;
65189;SDS011;51777;53.570;9.984;2022-09-29T07:27:02;16.10;;;11.20;;
65189;SDS011;51777;53.570;9.984;2022-09-29T07:29:27;18.80;;;12.07;;
65189;SDS011;51777;53.570;9.984;2022-09-29T07:31:56;17.17;;;11.98;;
65189;SDS011;51777;53.570;9.984;2022-09-29T07:34:23;17.05;;;11.73;;
65189;SDS011;51777;53.570;9.984;2022-09-29T07:36:48;22.00;;;12.05;;
65189;SDS011;51777;53.570;9.984;2022-09-29T07:39:14;21.23;;;12.48;;
65189;SDS011;51777;53.570;9.984;2022-09-29T07:41:39;20.17;;;12.35;;
65189;SDS011;51777;53.570;9.984;2022-09-29T07:44:05;18.00;;;12.95;;
65189;SDS011;51777;53.570;9.984;2022-09-29T07:46:30;20.35;;;12.68;;
65189;SDS011;51777;53.570;9.984;2022-09-29T07:48:56;17.42;;;12.30;;
65189;SDS011;51777;53.570;9.984;2022-09-29T07:51:22;18.50;;;12.65;;
65189;SDS011;51777;53.570;9.984;2022-09-29T07:53:48;17.75;;;12.80;;
65189;SDS011;51777;53.570;9.984;2022-09-29T07:56:14;19.17;;;12.20;;
65189;SDS011;51777;53.570;9.984;2022-09-29T07:58:42;20.63;;;12.50;;
65189;SDS011;51777;53.570;9.984;2022-09-29T08:01:09;21.80;;;12.95;;
65189;SDS011;51777;53.570;9.984;2022-09-29T08:03:37;20.23;;;13.57;;
65189;SDS011;51777;53.570;9.984;2022-09-29T08:06:03;21.33;;;13.52;;
65189;SDS011;51777;53.570;9.984;2022-09-29T08:08:29;18.65;;;13.07;;
65189;SDS011;51777;53.570;9.984;2022-09-29T08:11:05;17.80;;;13.43;;
65189;SDS011;51777;53.570;9.984;2022-09-29T08:13:38;19.25;;;13.07;;
65189;SDS011;51777;53.570;9.984;2022-09-29T08:16:05;23.90;;;14.25;;
65189;SDS011;51777;53.570;9.984;2022-09-29T08:18:33;22.13;;;12.75;;
65189;SDS011;51777;53.570;9.984;2022-09-29T08:20:59;19.15;;;11.65;;
65189;SDS011;51777;53.570;9.984;2022-09-29T08:23:25;17.02;;;10.75;;
65189;SDS011;51777;53.570;9.984;2022-09-29T08:26:00;15.25;;;10.68;;
65189;SDS011;51777;53.570;9.984;2022-09-29T08:28:27;18.23;;;10.45;;
65189;SDS011;51777;53.570;9.984;2022-09-29T08:30:54;15.98;;;10.32;;
65189;SDS011;51777;53.570;9.984;2022-09-29T08:33:19;19.08;;;10.82;;
65189;SDS011;51777;53.570;9.984;2022-09-29T08:35:45;16.73;;;9.77;;
65189;SDS011;51777;53.570;9.984;2022-09-29T08:38:10;16.65;;;10.18;;
65189;SDS011;51777;53.570;9.984;2022-09-29T08:40:36;19.73;;;10.18;;
65189;SDS011;51777;53.570;9.984;2022-09-29T08:43:06;13.38;;;10.35;;
65189;SDS011;51777;53.570;9.984;2022-09-29T08:46:10;16.08;;;10.38;;
65189;SDS011;51777;53.570;9.984;2022-09-29T08:48:38;24.00;;;10.80;;
65189;SDS011;51777;53.570;9.984;2022-09-29T08:51:17;17.75;;;10.48;;
65189;SDS011;51777;53.570;9.984;2022-09-29T08:53:46;23.08;;;9.73;;
65189;SDS011;51777;53.570;9.984;2022-09-29T08:56:14;15.73;;;9.50;;
65189;SDS011;51777;53.570;9.984;2022-09-29T08:58:41;25.75;;;9.30;;
65189;SDS011;51777;53.570;9.984;2022-09-29T09:15:44;10.85;;;8.93;;
65189;SDS011;51777;53.570;9.984;2022-09-29T09:21:35;16.33;;;9.27;;
65189;SDS011;51777;53.570;9.984;2022-09-29T09:23:53;12.88;;;9.55;;
65189;SDS011;51777;53.570;9.984;2022-09-29T09:26:37;13.70;;;9.43;;
65189;SDS011;51777;53.570;9.984;2022-09-29T09:29:14;13.45;;;10.45;;
65189;SDS011;51777;53.570;9.984;2022-09-29T09:32:09;16.02;;;10.80;;
65189;SDS011;51777;53.570;9.984;2022-09-29T09:40:00;18.13;;;11.85;;
65189;SDS011;51777;53.570;9.984;2022-09-29T09:42:37;20.17;;;12.20;;
65189;SDS011;51777;53.570;9.984;2022-09-29T09:47:58;16.92;;;11.88;;
65189;SDS011;51777;53.570;9.984;2022-09-29T09:50:31;16.20;;;11.87;;
65189;SDS011;51777;53.570;9.984;2022-09-29T09:53:04;16.63;;;11.98;;
65189;SDS011;51777;53.570;9.984;2022-09-29T09:55:36;18.40;;;12.32;;
65189;SDS011;51777;53.570;9.984;2022-09-29T10:03:09;15.95;;;12.00;;
65189;SDS011;51777;53.570;9.984;2022-09-29T10:05:46;13.27;;;10.10;;
65189;SDS011;51777;53.570;9.984;2022-09-29T10:08:22;13.60;;;9.18;;
65189;SDS011;51777;53.570;9.984;2022-09-29T10:10:52;11.75;;;8.75;;
65189;SDS011;51777;53.570;9.984;2022-09-29T10:13:18;11.35;;;9.07;;
65189;SDS011;51777;53.570;9.984;2022-09-29T10:18:39;11.43;;;9.15;;
65189;SDS011;51777;53.570;9.984;2022-09-29T10:24:27;11.32;;;7.28;;
65189;SDS011;51777;53.570;9.984;2022-09-29T10:26:58;13.25;;;8.82;;
65189;SDS011;51777;53.570;9.984;2022-09-29T10:29:40;10.38;;;8.23;;
65189;SDS011;51777;53.570;9.984;2022-09-29T10:32:22;10.27;;;8.13;;
65189;SDS011;51777;53.570;9.984;2022-09-29T10:35:22;12.32;;;8.43;;
65189;SDS011;51777;53.570;9.984;2022-09-29T10:38:00;15.30;;;8.57;;
65189;SDS011;51777;53.570;9.984;2022-09-29T10:40:29;10.43;;;7.75;;
65189;SDS011;51777;53.570;9.984;2022-09-29T10:42:55;11.45;;;8.50;;
65189;SDS011;51777;53.570;9.984;2022-09-29T10:45:22;9.27;;;7.32;;
65189;SDS011;51777;53.570;9.984;2022-09-29T10:50:22;10.40;;;7.28;;
65189;SDS011;51777;53.570;9.984;2022-09-29T10:52:53;12.23;;;7.20;;
65189;SDS011;51777;53.570;9.984;2022-09-29T10:55:25;16.17;;;7.63;;
65189;SDS011;51777;53.570;9.984;2022-09-29T10:57:53;14.18;;;7.20;;
65189;SDS011;51777;53.570;9.984;2022-09-29T11:00:26;10.57;;;7.18;;
65189;SDS011;51777;53.570;9.984;2022-09-29T11:03:06;8.52;;;6.22;;
65189;SDS011;51777;53.570;9.984;2022-09-29T11:05:49;8.45;;;6.60;;
65189;SDS011;51777;53.570;9.984;2022-09-29T11:08:19;7.90;;;6.25;;
65189;SDS011;51777;53.570;9.984;2022-09-29T11:10:51;8.85;;;6.75;;
65189;SDS011;51777;53.570;9.984;2022-09-29T11:13:46;10.43;;;7.50;;
65189;SDS011;51777;53.570;9.984;2022-09-29T11:16:14;12.52;;;7.82;;
65189;SDS011;51777;53.570;9.984;2022-09-29T11:18:45;11.13;;;7.97;;
65189;SDS011;51777;53.570;9.984;2022-09-29T11:22:19;10.15;;;7.78;;
65189;SDS011;51777;53.570;9.984;2022-09-29T12:03:51;16.52;;;9.32;;
65189;SDS011;51777;53.570;9.984;2022-09-29T12:14:29;20.95;;;9.48;;
65189;SDS011;51777;53.570;9.984;2022-09-29T12:17:11;19.75;;;10.13;;
65189;SDS011;51777;53.570;9.984;2022-09-29T12:19:38;14.65;;;9.57;;
65189;SDS011;51777;53.570;9.984;2022-09-29T12:22:09;25.65;;;9.75;;
65189;SDS011;51777;53.570;9.984;2022-09-29T12:24:40;18.67;;;9.93;;
65189;SDS011;51777;53.570;9.984;2022-09-29T12:29:45;14.70;;;9.65;;
65189;SDS011;51777;53.570;9.984;2022-09-29T12:32:27;17.45;;;9.50;;
65189;SDS011;51777;53.570;9.984;2022-09-29T12:37:55;13.85;;;9.15;;
65189;SDS011;51777;53.570;9.984;2022-09-29T12:49:08;13.98;;;6.75;;
65189;SDS011;51777;53.570;9.984;2022-09-29T12:56:38;10.43;;;5.20;;
65189;SDS011;51777;53.570;9.984;2022-09-29T12:59:22;9.15;;;5.15;;
65189;SDS011;51777;53.570;9.984;2022-09-29T13:13:10;5.47;;;4.65;;
65189;SDS011;51777;53.570;9.984;2022-09-29T13:15:53;13.18;;;4.97;;
65189;SDS011;51777;53.570;9.984;2022-09-29T13:29:13;14.25;;;5.90;;
65189;SDS011;51777;53.570;9.984;2022-09-29T13:31:42;7.93;;;6.05;;
65189;SDS011;51777;53.570;9.984;2022-09-29T13:34:17;10.13;;;5.80;;
65189;SDS011;51777;53.570;9.984;2022-09-29T13:36:51;14.60;;;6.97;;
65189;SDS011;51777;53.570;9.984;2022-09-29T13:39:24;15.25;;;6.82;;
65189;SDS011;51777;53.570;9.984;2022-09-29T13:41:52;9.55;;;6.85;;
65189;SDS011;51777;53.570;9.984;2022-09-29T13:44:21;7.70;;;6.57;;
65189;SDS011;51777;53.570;9.984;2022-09-29T13:46:53;14.43;;;7.60;;
65189;SDS011;51777;53.570;9.984;2022-09-29T13:51:49;10.13;;;7.57;;
65189;SDS011;51777;53.570;9.984;2022-09-29T13:54:39;11.13;;;7.70;;
65189;SDS011;51777;53.570;9.984;2022-09-29T13:59:36;10.07;;;7.70;;
65189;SDS011;51777;53.570;9.984;2022-09-29T14:13:21;11.57;;;9.02;;
65189;SDS011;51777;53.570;9.984;2022-09-29T14:16:05;14.48;;;9.43;;
65189;SDS011;51777;53.570;9.984;2022-09-29T14:18:47;11.45;;;9.02;;
65189;SDS011;51777;53.570;9.984;2022-09-29T14:28:00;12.90;;;10.13;;
65189;SDS011;51777;53.570;9.984;2022-09-29T14:32:39;10.80;;;9.68;;
65189;SDS011;51777;53.570;9.984;2022-09-29T14:35:33;12.63;;;9.95;;
65189;SDS011;51777;53.570;9.984;2022-09-29T14:38:05;14.20;;;10.38;;
65189;SDS011;51777;53.570;9.984;2022-09-29T14:40:32;13.05;;;9.85;;
65189;SDS011;51777;53.570;9.984;2022-09-29T14:49:32;15.95;;;9.98;;
65189;SDS011;51777;53.570;9.984;2022-09-29T15:03:10;10.98;;;9.30;;
65189;SDS011;51777;53.570;9.984;2022-09-29T15:05:42;27.20;;;19.88;;
65189;SDS011;51777;53.570;9.984;2022-09-29T15:08:28;23.23;;;14.43;;
65189;SDS011;51777;53.570;9.984;2022-09-29T15:10:55;22.55;;;14.65;;
65189;SDS011;51777;53.570;9.984;2022-09-29T15:13:23;16.23;;;10.70;;
65189;SDS011;51777;53.570;9.984;2022-09-29T15:15:54;17.25;;;13.88;;
65189;SDS011;51777;53.570;9.984;2022-09-29T15:19:44;12.75;;;10.20;;
65189;SDS011;51777;53.570;9.984;2022-09-29T15:24:37;15.18;;;10.15;;
65189;SDS011;51777;53.570;9.984;2022-09-29T15:27:18;14.95;;;11.45;;
65189;SDS011;51777;53.570;9.984;2022-09-29T15:29:45;15.93;;;11.07;;
65189;SDS011;51777;53.570;9.984;2022-09-29T15:32:18;13.73;;;10.43;;
65189;SDS011;51777;53.570;9.984;2022-09-29T15:34:47;16.67;;;12.38;;
65189;SDS011;51777;53.570;9.984;2022-09-29T15:37:13;13.95;;;10.15;;
65189;SDS011;51777;53.570;9.984;2022-09-29T15:39:40;16.52;;;11.43;;
65189;SDS011;51777;53.570;9.984;2022-09-29T15:42:11;12.50;;;9.73;;
65189;SDS011;51777;53.570;9.984;2022-09-29T15:44:40;15.52;;;10.85;;
65189;SDS011;51777;53.570;9.984;2022-09-29T15:47:17;13.18;;;9.13;;
65189;SDS011;51777;53.570;9.984;2022-09-29T15:49:51;15.75;;;9.75;;
65189;SDS011;51777;53.570;9.984;2022-09-29T15:52:17;16.38;;;10.63;;
65189;SDS011;51777;53.570;9.984;2022-09-29T15:54:48;13.15;;;9.40;;
65189;SDS011;51777;53.570;9.984;2022-09-29T15:57:26;14.32;;;11.02;;
65189;SDS011;51777;53.570;9.984;2022-09-29T16:03:35;17.95;;;12.60;;
65189;SDS011;51777;53.570;9.984;2022-09-29T16:06:13;19.08;;;13.63;;
65189;SDS011;51777;53.570;9.984;2022-09-29T16:08:45;17.70;;;12.38;;
65189;SDS011;51777;53.570;9.984;2022-09-29T16:13:57;16.52;;;10.63;;
65189;SDS011;51777;53.570;9.984;2022-09-29T16:16:28;17.33;;;10.35;;
65189;SDS011;51777;53.570;9.984;2022-09-29T16:18:59;16.23;;;11.95;;
65189;SDS011;51777;53.570;9.984;2022-09-29T16:21:31;14.50;;;10.82;;
65189;SDS011;51777;53.570;9.984;2022-09-29T16:26:49;17.23;;;10.23;;
65189;SDS011;51777;53.570;9.984;2022-09-29T16:31:50;13.70;;;9.80;;
65189;SDS011;51777;53.570;9.984;2022-09-29T16:36:54;11.65;;;9.50;;
65189;SDS011;51777;53.570;9.984;2022-09-29T16:39:45;16.35;;;10.05;;
65189;SDS011;51777;53.570;9.984;2022-09-29T16:42:19;17.65;;;10.20;;
65189;SDS011;51777;53.570;9.984;2022-09-29T16:44:49;15.52;;;10.38;;
65189;SDS011;51777;53.570;9.984;2022-09-29T16:49:49;14.90;;;10.38;;
65189;SDS011;51777;53.570;9.984;2022-09-29T16:54:51;14.97;;;9.60;;
65189;SDS011;51777;53.570;9.984;2022-09-29T16:57:22;14.43;;;10.23;;
65189;SDS011;51777;53.570;9.984;2022-09-29T16:59:54;16.98;;;10.00;;
65189;SDS011;51777;53.570;9.984;2022-09-29T17:02:24;14.10;;;10.23;;
65189;SDS011;51777;53.570;9.984;2022-09-29T17:04:51;16.83;;;9.88;;
65189;SDS011;51777;53.570;9.984;2022-09-29T17:07:18;15.50;;;10.60;;
65189;SDS011;51777;53.570;9.984;2022-09-29T17:09:50;16.15;;;10.40;;
65189;SDS011;51777;53.570;9.984;2022-09-29T17:12:19;14.60;;;11.38;;
65189;SDS011;51777;53.570;9.984;2022-09-29T17:14:45;17.92;;;11.00;;
65189;SDS011;51777;53.570;9.984;2022-09-29T17:17:15;13.70;;;10.43;;
65189;SDS011;51777;53.570;9.984;2022-09-29T17:19:42;16.20;;;11.10;;
65189;SDS011;51777;53.570;9.984;2022-09-29T17:22:16;19.30;;;11.85;;
65189;SDS011;51777;53.570;9.984;2022-09-29T17:25:03;14.77;;;11.23;;
65189;SDS011;51777;53.570;9.984;2022-09-29T17:27:29;19.05;;;11.57;;
65189;SDS011;51777;53.570;9.984;2022-09-29T17:30:15;14.77;;;10.40;;
65189;SDS011;51777;53.570;9.984;2022-09-29T17:32:45;18.10;;;10.98;;
65189;SDS011;51777;53.570;9.984;2022-09-29T17:35:15;18.30;;;13.02;;
65189;SDS011;51777;53.570;9.984;2022-09-29T17:37:42;17.95;;;12.18;;
65189;SDS011;51777;53.570;9.984;2022-09-29T17:42:54;18.70;;;10.85;;
65189;SDS011;51777;53.570;9.984;2022-09-29T17:45:23;18.85;;;11.43;;
65189;SDS011;51777;53.570;9.984;2022-09-29T17:47:52;44.05;;;17.80;;
65189;SDS011;51777;53.570;9.984;2022-09-29T17:50:26;22.90;;;12.23;;
65189;SDS011;51777;53.570;9.984;2022-09-29T17:52:55;26.48;;;11.63;;
65189;SDS011;51777;53.570;9.984;2022-09-29T17:55:26;21.35;;;12.15;;
65189;SDS011;51777;53.570;9.984;2022-09-29T17:57:52;20.58;;;11.43;;
65189;SDS011;51777;53.570;9.984;2022-09-29T18:02:48;17.20;;;11.27;;
65189;SDS011;51777;53.570;9.984;2022-09-29T18:05:15;15.77;;;10.05;;
65189;SDS011;51777;53.570;9.984;2022-09-29T18:07:50;18.58;;;10.23;;
65189;SDS011;51777;53.570;9.984;2022-09-29T18:13:07;16.52;;;10.05;;
65189;SDS011;51777;53.570;9.984;2022-09-29T18:15:33;13.68;;;9.80;;
65189;SDS011;51777;53.570;9.984;2022-09-29T18:18:01;19.80;;;10.60;;
65189;SDS011;51777;53.570;9.984;2022-09-29T18:20:29;16.50;;;9.75;;
65189;SDS011;51777;53.570;9.984;2022-09-29T18:22:56;22.02;;;9.95;;
65189;SDS011;51777;53.570;9.984;2022-09-29T18:25:24;13.35;;;9.10;;
65189;SDS011;51777;53.570;9.984;2022-09-29T18:27:51;15.07;;;10.02;;